Time;durP1;ratioP1;P1;durP2;ratioP2;P2;SDS_P1;SDS_P2;PMS_P1;PMS_P2;Temp;Humidity;BMP_temperature;BMP_pressure;BME280_temperature;BME280_humidity;BME280_pressure;Samples;Min_cycle;Max_cycle;Signal;HPM_P1;HPM_P2
2023/12/14 00:02:06;;;;;;;0.87;0.87;;;6.30;99.90;;;;;;5067104;28;20674;-84
2023/12/14 00:04:32;;;;;;;2.00;1.60;;;6.30;99.90;;;;;;5050500;28;20225;-84
2023/12/14 00:06:57;;;;;;;0.40;0.40;;;6.30;99.90;;;;;;5050371;28;20869;-84
2023/12/14 00:09:23;;;;;;;1.90;1.77;;;6.40;99.90;;;;;;5050476;28;20190;-82
2023/12/14 00:11:49;;;;;;;1.80;1.27;;;6.40;99.90;;;;;;5066815;28;20225;-84
2023/12/14 00:14:14;;;;;;;2.43;0.87;;;6.30;99.90;;;;;;5066946;28;21064;-84
2023/12/14 00:16:40;;;;;;;8.03;1.07;;;6.40;99.90;;;;;;5049811;28;20716;-83
2023/12/14 00:19:06;;;;;;;2.97;1.40;;;6.30;99.90;;;;;;5066881;28;20217;-82
2023/12/14 00:21:32;;;;;;;0.57;0.57;;;6.30;99.90;;;;;;5057457;28;20192;-85
2023/12/14 00:23:57;;;;;;;0.47;0.47;;;6.30;99.90;;;;;;5050239;28;20219;-85
2023/12/14 00:26:23;;;;;;;2.40;0.70;;;6.30;99.90;;;;;;5066677;28;20225;-85
2023/12/14 00:28:49;;;;;;;1.13;1.13;;;6.20;99.90;;;;;;5050150;28;20309;-83
2023/12/14 00:31:14;;;;;;;2.47;0.87;;;6.30;99.90;;;;;;5049588;28;21064;-84
2023/12/14 00:33:40;;;;;;;1.73;1.63;;;6.30;99.90;;;;;;5058752;28;20985;-84
2023/12/14 00:36:06;;;;;;;2.17;1.90;;;6.30;99.90;;;;;;5049880;28;20189;-84
2023/12/14 00:38:32;;;;;;;1.53;1.13;;;6.20;99.90;;;;;;5032659;28;21127;-85
2023/12/14 00:40:58;;;;;;;0.67;0.67;;;6.20;99.90;;;;;;5065347;28;20279;-84
2023/12/14 00:43:24;;;;;;;0.97;0.97;;;6.20;99.90;;;;;;5044155;28;21013;-84
2023/12/14 00:45:49;;;;;;;1.63;1.53;;;6.20;99.90;;;;;;5065565;28;20710;-84
2023/12/14 00:48:15;;;;;;;1.27;1.17;;;6.20;99.90;;;;;;5048819;28;20240;-85
2023/12/14 00:50:41;;;;;;;1.00;1.00;;;6.20;99.90;;;;;;5046490;28;20737;-83
2023/12/14 00:53:07;;;;;;;0.63;0.63;;;6.20;99.90;;;;;;5049431;28;20275;-83
2023/12/14 00:55:32;;;;;;;2.43;1.53;;;6.20;99.90;;;;;;5046456;28;20332;-86
2023/12/14 00:57:58;;;;;;;0.60;0.60;;;6.20;99.90;;;;;;5050815;28;20294;-84
2023/12/14 01:00:24;;;;;;;0.87;0.87;;;6.20;99.90;;;;;;5049850;28;20197;-83
2023/12/14 01:02:50;;;;;;;0.23;0.23;;;6.20;99.90;;;;;;5067122;28;20251;-85
2023/12/14 01:05:18;;;;;;;0.43;0.43;;;6.30;99.90;;;;;;5065382;28;20217;-82
2023/12/14 01:07:44;;;;;;;2.10;0.87;;;6.20;99.90;;;;;;5066625;28;20240;-83
2023/12/14 01:10:10;;;;;;;1.03;0.70;;;6.20;99.90;;;;;;5042163;28;20304;-83
2023/12/14 01:12:35;;;;;;;1.33;1.17;;;6.20;99.90;;;;;;5048393;28;20235;-84
2023/12/14 01:15:02;;;;;;;0.30;0.30;;;6.20;99.90;;;;;;5050071;28;21076;-83
2023/12/14 01:17:28;;;;;;;0.50;0.50;;;6.20;99.90;;;;;;5065049;28;20559;-85
2023/12/14 01:19:54;;;;;;;1.20;1.07;;;6.30;99.90;;;;;;5048956;28;20228;-87
2023/12/14 01:22:20;;;;;;;0.77;0.77;;;6.30;99.90;;;;;;5082705;28;20685;-85
2023/12/14 01:24:45;;;;;;;1.07;1.07;;;6.30;99.90;;;;;;5049575;28;20185;-84
2023/12/14 01:27:13;;;;;;;2.53;2.30;;;6.30;99.90;;;;;;5050227;28;20958;-84
2023/12/14 01:29:39;;;;;;;5.60;1.87;;;6.30;99.90;;;;;;5066411;28;20225;-84
2023/12/14 01:32:05;;;;;;;0.80;0.80;;;6.20;99.90;;;;;;5047843;28;20657;-83
2023/12/14 01:34:34;;;;;;;0.87;0.87;;;6.20;99.90;;;;;;5048513;28;20217;-84
2023/12/14 01:37:00;;;;;;;0.80;0.80;;;6.30;99.90;;;;;;5062525;28;20217;-83
2023/12/14 01:39:25;;;;;;;1.10;1.10;;;6.30;99.90;;;;;;5065591;28;20189;-84
2023/12/14 01:41:51;;;;;;;0.30;0.30;;;6.30;99.90;;;;;;5025091;28;20702;-85
2023/12/14 01:44:17;;;;;;;2.87;1.23;;;6.30;99.90;;;;;;5063724;28;20240;-85
2023/12/14 01:46:43;;;;;;;0.83;0.83;;;6.30;99.90;;;;;;5044533;28;20232;-87
2023/12/14 01:49:08;;;;;;;16.60;1.57;;;6.30;99.90;;;;;;5048658;28;20221;-84
2023/12/14 01:51:35;;;;;;;1.07;1.07;;;6.30;99.90;;;;;;5047932;28;20201;-83
2023/12/14 01:54:00;;;;;;;1.20;1.10;;;6.30;99.90;;;;;;5048041;28;20192;-83
2023/12/14 01:56:26;;;;;;;0.53;0.53;;;6.30;99.90;;;;;;5047967;28;20567;-85
2023/12/14 01:58:52;;;;;;;2.07;2.00;;;6.30;99.90;;;;;;5063514;28;20256;-84
2023/12/14 02:01:41;;;;;;;0.53;0.53;;;6.30;99.90;;;;;;5063809;28;20221;-85
2023/12/14 02:04:07;;;;;;;0.27;0.27;;;6.30;99.90;;;;;;5063886;28;20217;-85
2023/12/14 02:06:33;;;;;;;0.87;0.87;;;6.30;99.90;;;;;;5047033;28;20209;-84
2023/12/14 02:08:59;;;;;;;1.93;1.60;;;6.30;99.90;;;;;;5045587;28;20233;-84
2023/12/14 02:11:25;;;;;;;0.73;0.73;;;6.30;99.90;;;;;;5038380;28;20213;-87
2023/12/14 02:13:51;;;;;;;11.57;1.20;;;6.20;99.90;;;;;;5053296;28;20228;-82
2023/12/14 02:16:16;;;;;;;1.53;1.30;;;6.30;99.90;;;;;;5061552;28;20680;-86
2023/12/14 02:18:42;;;;;;;0.90;0.90;;;6.20;99.90;;;;;;5064167;28;20212;-84
2023/12/14 02:21:08;;;;;;;0.93;0.93;;;6.30;99.90;;;;;;5047883;28;20177;-85
2023/12/14 02:23:34;;;;;;;1.20;1.20;;;6.20;99.90;;;;;;5046814;28;20257;-84
2023/12/14 02:25:59;;;;;;;2.87;1.80;;;6.20;99.90;;;;;;5046833;28;20232;-83
2023/12/14 02:28:25;;;;;;;2.27;2.17;;;6.20;99.90;;;;;;5061427;28;20228;-86
2023/12/14 02:30:51;;;;;;;1.10;0.90;;;6.20;99.90;;;;;;5044527;28;20221;-83
2023/12/14 02:33:17;;;;;;;1.53;1.43;;;6.30;99.90;;;;;;5077905;28;20333;-84
2023/12/14 02:35:43;;;;;;;1.30;1.30;;;6.30;99.90;;;;;;5061601;28;20221;-86
2023/12/14 02:38:09;;;;;;;6.33;1.40;;;6.30;99.90;;;;;;5061222;28;20249;-84
2023/12/14 02:40:35;;;;;;;1.30;1.30;;;6.20;99.90;;;;;;5062265;28;20316;-86
2023/12/14 02:43:01;;;;;;;1.23;0.97;;;6.20;99.90;;;;;;5077733;28;20233;-85
2023/12/14 02:45:27;;;;;;;1.17;1.17;;;6.20;99.90;;;;;;5043969;28;20181;-83
2023/12/14 02:47:55;;;;;;;0.40;0.40;;;6.30;99.90;;;;;;5044922;28;20237;-85
2023/12/14 02:50:20;;;;;;;3.17;1.80;;;6.30;99.90;;;;;;5061122;28;20688;-86
2023/12/14 02:52:46;;;;;;;1.53;1.53;;;6.20;99.90;;;;;;5044794;28;20266;-84
2023/12/14 02:55:12;;;;;;;1.40;1.30;;;6.30;99.90;;;;;;5061168;28;20221;-82
2023/12/14 02:57:38;;;;;;;1.47;1.37;;;6.30;99.90;;;;;;5044602;28;20703;-83
2023/12/14 03:00:06;;;;;;;1.60;1.50;;;6.20;99.90;;;;;;5046381;28;20189;-83
2023/12/14 03:02:32;;;;;;;2.30;2.10;;;6.20;99.90;;;;;;5064542;28;20866;-85
2023/12/14 03:04:58;;;;;;;1.87;1.77;;;6.10;99.90;;;;;;5063550;28;20273;-82
2023/12/14 03:07:24;;;;;;;2.00;1.90;;;6.20;99.90;;;;;;5043317;28;20238;-84
2023/12/14 03:09:49;;;;;;;1.50;1.40;;;6.20;99.90;;;;;;5013749;28;20347;-84
2023/12/14 03:12:15;;;;;;;0.97;0.93;;;6.20;99.90;;;;;;5047571;28;20657;-83
2023/12/14 03:14:43;;;;;;;1.30;1.30;;;6.20;99.90;;;;;;5062465;28;20217;-84
2023/12/14 03:17:12;;;;;;;2.83;2.27;;;6.20;99.90;;;;;;5047205;28;20224;-84
2023/12/14 03:19:42;;;;;;;0.70;0.70;;;6.20;99.90;;;;;;5044197;28;20271;-84
2023/12/14 03:22:08;;;;;;;0.73;0.73;;;6.30;99.90;;;;;;5046959;28;20691;-84
2023/12/14 03:24:35;;;;;;;3.20;1.10;;;6.10;99.90;;;;;;5056052;28;20177;-85
2023/12/14 03:27:02;;;;;;;1.33;1.00;;;6.30;99.90;;;;;;5046206;28;20532;-89
2023/12/14 03:29:28;;;;;;;2.33;2.23;;;6.30;99.90;;;;;;5096461;28;20213;-84
2023/12/14 03:31:55;;;;;;;2.80;2.57;;;6.20;99.90;;;;;;5030970;28;20209;-83
2023/12/14 03:34:21;;;;;;;2.60;2.37;;;6.20;99.90;;;;;;5032457;28;20241;-84
2023/12/14 03:36:47;;;;;;;1.17;1.17;;;6.20;99.90;;;;;;5027762;28;20261;-85
2023/12/14 03:39:12;;;;;;;1.80;0.87;;;6.20;99.90;;;;;;5045982;28;20224;-87
2023/12/14 03:41:38;;;;;;;1.20;1.10;;;6.30;99.90;;;;;;5061032;28;20228;-84
2023/12/14 03:44:04;;;;;;;1.97;1.83;;;6.30;99.90;;;;;;5060059;28;20621;-85
2023/12/14 03:46:30;;;;;;;1.70;1.60;;;6.20;99.90;;;;;;5060935;28;20221;-86
2023/12/14 03:48:56;;;;;;;1.10;1.10;;;6.30;99.90;;;;;;5045113;28;20233;-85
2023/12/14 03:51:22;;;;;;;1.93;1.63;;;6.20;99.90;;;;;;5054519;28;20185;-84
2023/12/14 03:53:47;;;;;;;1.90;1.77;;;6.20;99.90;;;;;;5062836;28;20737;-84
2023/12/14 03:56:13;;;;;;;1.10;1.10;;;6.20;99.90;;;;;;5045022;28;20220;-85
2023/12/14 03:58:39;;;;;;;1.40;0.77;;;6.20;99.90;;;;;;5073084;28;20221;-85
2023/12/14 04:01:05;;;;;;;1.60;1.60;;;6.20;99.90;;;;;;5065518;28;20591;-85
2023/12/14 04:03:32;;;;;;;0.80;0.80;;;6.30;99.90;;;;;;5058013;28;20193;-85
2023/12/14 04:05:57;;;;;;;1.23;1.17;;;6.20;99.90;;;;;;5048400;28;20193;-85
2023/12/14 04:08:23;;;;;;;0.87;0.87;;;6.20;99.90;;;;;;5064922;28;20274;-85
2023/12/14 04:10:49;;;;;;;0.70;0.70;;;6.10;99.90;;;;;;5047303;28;20607;-85
2023/12/14 04:13:14;;;;;;;1.03;1.03;;;6.20;99.90;;;;;;5049495;28;20235;-85
2023/12/14 04:15:43;;;;;;;2.67;1.43;;;6.30;99.90;;;;;;5048721;28;20217;-85
2023/12/14 04:18:09;;;;;;;1.47;1.47;;;6.20;99.90;;;;;;5043669;28;20231;-84
2023/12/14 04:20:35;;;;;;;5.23;2.50;;;6.20;99.90;;;;;;5052257;28;20229;-84
2023/12/14 04:23:00;;;;;;;1.80;1.07;;;6.30;99.90;;;;;;5068967;28;20220;-85
2023/12/14 04:25:26;;;;;;;0.60;0.60;;;6.30;99.90;;;;;;5068985;28;20740;-84
2023/12/14 04:27:52;;;;;;;1.63;1.53;;;6.40;99.90;;;;;;5046736;28;20221;-85
2023/12/14 04:30:17;;;;;;;1.23;1.23;;;6.20;99.90;;;;;;5048578;28;20497;-84
2023/12/14 04:32:44;;;;;;;1.63;0.93;;;6.30;99.90;;;;;;5066139;28;20271;-84
2023/12/14 04:35:10;;;;;;;1.03;1.03;;;6.30;99.90;;;;;;5066969;28;20216;-85
2023/12/14 04:37:36;;;;;;;1.23;1.17;;;6.30;99.90;;;;;;5050141;28;20221;-85
2023/12/14 04:40:03;;;;;;;1.67;1.57;;;6.20;99.90;;;;;;5050581;28;20719;-84
2023/12/14 04:42:28;;;;;;;1.53;1.50;;;6.20;99.90;;;;;;5050379;28;20201;-85
2023/12/14 04:44:54;;;;;;;1.10;1.10;;;6.30;99.90;;;;;;5049948;28;20196;-85
2023/12/14 04:47:20;;;;;;;4.30;2.30;;;6.30;99.90;;;;;;5045973;28;20276;-85
2023/12/14 04:49:45;;;;;;;2.03;1.73;;;6.20;99.90;;;;;;5049102;28;20229;-86
2023/12/14 04:52:11;;;;;;;1.67;1.47;;;6.20;99.90;;;;;;5049600;28;20220;-85
2023/12/14 04:54:40;;;;;;;2.67;2.37;;;6.20;99.90;;;;;;5065356;28;20185;-85
2023/12/14 04:57:05;;;;;;;1.23;1.17;;;6.10;99.90;;;;;;5049581;28;20221;-85
2023/12/14 04:59:31;;;;;;;1.67;1.60;;;6.20;99.90;;;;;;5049508;28;20237;-84
2023/12/14 05:01:57;;;;;;;1.93;1.83;;;6.30;99.90;;;;;;5065323;28;20282;-85
2023/12/14 05:04:22;;;;;;;1.73;1.63;;;6.20;99.90;;;;;;5047993;28;21262;-84
2023/12/14 05:06:48;;;;;;;3.50;2.33;;;6.10;99.90;;;;;;5047498;28;20787;-85
2023/12/14 05:09:14;;;;;;;1.53;1.43;;;6.10;99.90;;;;;;5082071;28;20285;-85
2023/12/14 05:11:40;;;;;;;1.10;1.10;;;6.30;99.90;;;;;;5048330;28;20254;-86
2023/12/14 05:14:06;;;;;;;1.43;1.20;;;6.20;99.90;;;;;;5064476;28;20228;-85
2023/12/14 05:16:32;;;;;;;3.77;2.07;;;6.30;99.90;;;;;;5058491;28;20225;-85
2023/12/14 05:18:59;;;;;;;2.20;1.80;;;6.30;99.90;;;;;;5040796;28;20244;-85
2023/12/14 05:21:24;;;;;;;1.90;1.80;;;6.20;99.90;;;;;;5048283;28;20545;-85
2023/12/14 05:23:50;;;;;;;1.17;1.07;;;6.30;99.90;;;;;;5048738;28;20236;-84
2023/12/14 05:26:16;;;;;;;1.20;1.10;;;6.30;99.90;;;;;;5065172;28;20213;-85
2023/12/14 05:28:42;;;;;;;1.43;1.33;;;6.20;99.90;;;;;;5048821;28;20232;-85
2023/12/14 05:31:08;;;;;;;0.93;0.80;;;6.20;99.90;;;;;;5063799;28;20274;-84
2023/12/14 05:33:38;;;;;;;1.83;1.37;;;6.30;99.90;;;;;;5048400;28;20195;-85
2023/12/14 05:36:08;;;;;;;1.10;1.10;;;6.30;99.90;;;;;;5065699;28;20185;-86
2023/12/14 05:38:35;;;;;;;0.60;0.37;;;6.40;99.90;;;;;;5065822;28;20701;-84
2023/12/14 05:41:00;;;;;;;17.30;2.33;;;6.40;99.90;;;;;;5097978;28;20221;-84
2023/12/14 05:43:26;;;;;;;2.07;1.47;;;6.30;99.90;;;;;;5047847;28;20228;-85
2023/12/14 05:45:52;;;;;;;3.47;1.53;;;6.40;99.90;;;;;;5065005;28;20221;-86
2023/12/14 05:48:17;;;;;;;2.73;2.27;;;6.40;99.90;;;;;;5047740;28;20624;-84
2023/12/14 05:50:43;;;;;;;1.23;1.23;;;6.30;99.90;;;;;;5062310;28;20221;-84
2023/12/14 05:53:09;;;;;;;1.53;1.43;;;6.30;99.90;;;;;;5054749;28;20718;-85
2023/12/14 05:55:39;;;;;;;1.93;1.83;;;6.20;99.90;;;;;;5045246;28;20218;-85
2023/12/14 05:58:05;;;;;;;3.03;0.73;;;6.30;99.90;;;;;;5048365;28;20220;-85
2023/12/14 06:00:33;;;;;;;4.80;1.77;;;6.30;99.90;;;;;;5063353;28;20530;-85
2023/12/14 06:02:59;;;;;;;0.80;0.80;;;6.40;99.90;;;;;;5047961;28;20182;-86
2023/12/14 06:05:24;;;;;;;3.43;3.13;;;6.50;99.90;;;;;;5064079;28;20221;-85
2023/12/14 06:07:50;;;;;;;1.40;1.40;;;6.50;99.90;;;;;;5044804;28;20233;-85
2023/12/14 06:10:16;;;;;;;1.23;1.13;;;6.50;99.90;;;;;;5064284;28;20725;-83
2023/12/14 06:12:41;;;;;;;2.63;1.80;;;6.40;99.90;;;;;;5047243;28;20459;-84
2023/12/14 06:15:07;;;;;;;2.00;1.50;;;6.40;99.90;;;;;;5046649;28;20211;-85
2023/12/14 06:17:33;;;;;;;1.13;1.07;;;6.30;99.90;;;;;;5050688;28;20307;-84
2023/12/14 06:19:59;;;;;;;0.70;0.70;;;6.30;99.90;;;;;;5062586;28;20386;-84
2023/12/14 06:22:26;;;;;;;0.90;0.90;;;6.30;99.90;;;;;;5047482;28;20227;-85
2023/12/14 06:24:52;;;;;;;2.23;1.57;;;6.20;99.90;;;;;;5043917;28;20324;-85
2023/12/14 06:27:17;;;;;;;1.20;1.20;;;6.20;99.90;;;;;;5054433;28;20340;-83
2023/12/14 06:29:43;;;;;;;0.90;0.80;;;6.20;99.90;;;;;;5034817;28;20243;-85
2023/12/14 06:32:09;;;;;;;1.80;1.70;;;6.20;99.90;;;;;;5047193;28;20739;-84
2023/12/14 06:34:35;;;;;;;0.40;0.40;;;6.30;99.90;;;;;;5061876;28;20221;-84
2023/12/14 06:37:02;;;;;;;2.43;2.27;;;6.30;99.90;;;;;;5059828;28;20212;-83
2023/12/14 06:39:28;;;;;;;0.73;0.73;;;6.30;99.90;;;;;;5043321;28;20202;-86
2023/12/14 06:41:54;;;;;;;0.97;0.97;;;6.30;99.90;;;;;;5060429;28;20222;-87
2023/12/14 06:44:20;;;;;;;2.53;1.53;;;6.40;99.90;;;;;;5046439;28;20585;-86
2023/12/14 06:46:45;;;;;;;2.00;1.03;;;6.40;99.90;;;;;;5062527;28;20217;-85
2023/12/14 06:49:11;;;;;;;1.80;1.70;;;6.40;99.90;;;;;;5061985;28;20219;-85
2023/12/14 06:51:37;;;;;;;2.03;1.77;;;6.50;99.90;;;;;;5045606;28;20682;-85
2023/12/14 06:54:03;;;;;;;2.03;1.90;;;6.40;99.90;;;;;;5060437;28;20189;-87
2023/12/14 06:56:29;;;;;;;1.17;1.17;;;6.50;99.90;;;;;;5062853;28;20231;-86
2023/12/14 06:58:55;;;;;;;1.03;1.03;;;6.40;99.90;;;;;;5046212;28;20221;-84
2023/12/14 07:01:20;;;;;;;0.60;0.60;;;6.50;99.90;;;;;;5041827;28;20221;-84
2023/12/14 07:03:46;;;;;;;2.20;2.00;;;6.40;99.90;;;;;;5062770;28;20228;-84
2023/12/14 07:06:15;;;;;;;1.57;1.03;;;6.50;99.90;;;;;;5056239;28;20311;-85
2023/12/14 07:08:41;;;;;;;5.17;1.13;;;6.50;99.90;;;;;;5039076;28;20225;-84
2023/12/14 07:11:11;;;;;;;1.07;1.07;;;6.50;99.90;;;;;;5053419;28;20220;-85
2023/12/14 07:13:38;;;;;;;1.93;1.83;;;6.60;99.90;;;;;;5061988;28;20248;-87
2023/12/14 07:16:07;;;;;;;2.03;1.93;;;6.60;99.90;;;;;;5063922;28;20688;-87
2023/12/14 07:18:40;;;;;;;2.40;1.63;;;6.70;99.90;;;;;;5062948;28;20204;-85
2023/12/14 07:21:07;;;;;;;2.90;2.63;;;6.50;99.90;;;;;;5080239;28;20366;-84
2023/12/14 07:23:33;;;;;;;2.30;2.20;;;6.60;99.90;;;;;;5057483;28;20936;-85
2023/12/14 07:25:59;;;;;;;1.43;1.33;;;6.70;99.90;;;;;;5062426;28;20729;-86
2023/12/14 07:28:25;;;;;;;1.50;1.37;;;6.60;99.90;;;;;;5044856;28;20231;-87
2023/12/14 07:30:50;;;;;;;11.60;1.67;;;6.60;99.90;;;;;;5065661;28;20304;-87
2023/12/14 07:33:16;;;;;;;3.73;1.43;;;6.60;99.90;;;;;;5050515;28;20962;-82
2023/12/14 07:35:42;;;;;;;1.20;1.10;;;6.70;99.90;;;;;;5065040;28;20213;-85
2023/12/14 07:38:10;;;;;;;0.70;0.70;;;6.70;99.90;;;;;;5049053;28;20259;-86
2023/12/14 07:40:36;;;;;;;2.80;1.23;;;6.60;99.90;;;;;;5066459;28;20263;-84
2023/12/14 07:43:01;;;;;;;1.77;1.67;;;6.60;99.90;;;;;;5066372;28;20213;-85
2023/12/14 07:45:27;;;;;;;4.07;3.60;;;6.60;99.90;;;;;;5065753;28;20246;-87
2023/12/14 07:47:53;;;;;;;2.13;2.03;;;6.70;99.90;;;;;;5065366;28;20237;-84
2023/12/14 07:50:19;;;;;;;2.33;2.23;;;6.60;99.90;;;;;;5065280;28;20221;-84
2023/12/14 07:52:45;;;;;;;1.13;1.13;;;6.60;99.90;;;;;;5064247;28;20430;-85
2023/12/14 07:55:13;;;;;;;1.33;1.23;;;6.50;99.90;;;;;;5046695;28;20549;-86
2023/12/14 07:57:39;;;;;;;0.93;0.93;;;6.30;99.90;;;;;;5047758;28;20198;-85
2023/12/14 08:00:07;;;;;;;1.63;1.50;;;6.30;99.90;;;;;;5066148;28;20212;-84
2023/12/14 08:02:34;;;;;;;0.80;0.80;;;6.30;99.90;;;;;;5049783;28;20710;-85
2023/12/14 08:04:59;;;;;;;1.13;0.90;;;6.20;99.90;;;;;;5065294;28;20209;-85
2023/12/14 08:07:28;;;;;;;4.10;0.80;;;6.30;99.90;;;;;;5065917;28;20571;-86
2023/12/14 08:09:58;;;;;;;1.97;1.43;;;6.30;99.90;;;;;;5050303;28;20221;-87
2023/12/14 08:12:24;;;;;;;2.80;1.63;;;6.30;99.90;;;;;;5066989;28;20186;-85
2023/12/14 08:14:50;;;;;;;2.60;2.43;;;6.30;99.90;;;;;;5065632;28;20210;-85
2023/12/14 08:17:16;;;;;;;2.23;2.13;;;6.30;99.90;;;;;;5065341;28;20217;-84
2023/12/14 08:19:42;;;;;;;1.80;1.67;;;6.30;99.90;;;;;;5097896;27;20221;-84
2023/12/14 08:22:11;;;;;;;3.00;2.43;;;6.20;99.90;;;;;;5045229;28;21267;-84
2023/12/14 08:24:40;;;;;;;1.77;1.67;;;6.20;99.90;;;;;;5063137;28;20190;-83
2023/12/14 08:27:06;;;;;;;2.03;1.93;;;6.30;99.90;;;;;;5099707;28;20633;-85
2023/12/14 08:29:34;;;;;;;6.17;2.23;;;6.30;99.90;;;;;;5065505;28;20673;-83
2023/12/14 08:32:00;;;;;;;1.30;0.67;;;6.30;99.90;;;;;;5047704;28;20266;-86
2023/12/14 08:34:27;;;;;;;1.83;1.57;;;6.40;99.90;;;;;;5041810;28;20224;-83
2023/12/14 08:36:52;;;;;;;1.07;1.07;;;6.30;99.90;;;;;;5065172;28;20221;-84
2023/12/14 08:39:18;;;;;;;1.30;1.20;;;6.20;99.90;;;;;;5047032;28;20235;-84
2023/12/14 08:41:46;;;;;;;2.67;2.57;;;6.30;99.90;;;;;;5064184;28;20347;-82
2023/12/14 08:44:14;;;;;;;2.70;1.70;;;6.20;99.90;;;;;;5081198;28;20689;-83
2023/12/14 08:46:45;;;;;;;1.43;1.00;;;6.30;99.90;;;;;;5064514;28;20240;-84
2023/12/14 08:49:11;;;;;;;1.23;1.23;;;6.10;99.90;;;;;;5065041;28;20336;-84
2023/12/14 08:51:38;;;;;;;0.93;0.93;;;6.30;99.90;;;;;;5064734;28;20303;-83
2023/12/14 08:54:04;;;;;;;4.50;1.57;;;6.10;99.90;;;;;;5064717;28;20173;-85
2023/12/14 08:56:30;;;;;;;3.07;2.13;;;6.20;99.90;;;;;;5048823;28;20218;-83
2023/12/14 08:58:56;;;;;;;0.93;0.93;;;6.00;99.90;;;;;;5043463;28;20244;-86
2023/12/14 09:01:22;;;;;;;2.00;1.87;;;6.10;99.90;;;;;;5035643;28;20278;-83
2023/12/14 09:03:49;;;;;;;1.47;1.30;;;5.90;99.90;;;;;;5057337;28;20744;-83
2023/12/14 09:06:17;;;;;;;1.80;1.63;;;6.00;99.90;;;;;;5049191;28;20185;-86
2023/12/14 09:08:43;;;;;;;1.97;1.40;;;5.80;99.90;;;;;;5073888;28;20649;-82
2023/12/14 09:11:09;;;;;;;2.63;1.90;;;5.80;99.90;;;;;;5097354;27;20217;-83
2023/12/14 09:13:35;;;;;;;1.30;1.20;;;5.90;99.90;;;;;;5063776;28;20278;-83
2023/12/14 09:16:01;;;;;;;2.60;2.17;;;5.90;99.90;;;;;;5047524;28;20221;-84
2023/12/14 09:18:27;;;;;;;1.00;0.90;;;6.10;99.90;;;;;;5046688;28;20197;-84
2023/12/14 09:20:52;;;;;;;1.80;1.80;;;6.10;99.90;;;;;;5078466;28;20198;-83
2023/12/14 09:23:19;;;;;;;3.07;1.63;;;6.40;99.90;;;;;;5042575;28;20221;-86
2023/12/14 09:25:47;;;;;;;0.90;0.90;;;6.60;99.90;;;;;;5047265;28;20217;-84
2023/12/14 09:28:13;;;;;;;1.57;1.53;;;6.50;99.90;;;;;;5064491;28;20237;-83
2023/12/14 09:30:39;;;;;;;1.83;1.80;;;6.40;99.90;;;;;;5064485;28;20323;-85
2023/12/14 09:33:05;;;;;;;1.77;1.63;;;6.60;99.90;;;;;;5046219;28;20628;-85
2023/12/14 09:35:31;;;;;;;3.60;2.37;;;6.70;99.90;;;;;;5047350;28;20233;-83
2023/12/14 09:37:57;;;;;;;5.40;2.20;;;6.70;99.90;;;;;;5043887;28;20812;-85
2023/12/14 09:40:23;;;;;;;1.73;0.97;;;6.80;99.90;;;;;;5047590;28;20681;-82
2023/12/14 09:42:49;;;;;;;2.70;2.50;;;6.90;99.90;;;;;;5046553;28;20670;-83
2023/12/14 09:45:17;;;;;;;2.60;1.80;;;7.00;99.90;;;;;;5064874;28;20204;-83
2023/12/14 09:47:44;;;;;;;1.23;1.20;;;7.20;99.90;;;;;;5079698;28;20815;-83
2023/12/14 09:50:10;;;;;;;2.77;2.50;;;7.20;99.90;;;;;;5046222;28;20258;-83
2023/12/14 09:52:36;;;;;;;2.57;1.53;;;7.10;99.90;;;;;;5062691;28;20252;-84
2023/12/14 09:55:03;;;;;;;1.90;1.80;;;7.30;99.90;;;;;;5044078;28;20233;-83
2023/12/14 09:57:30;;;;;;;1.67;1.20;;;7.20;99.90;;;;;;5044796;28;20201;-85
2023/12/14 09:59:56;;;;;;;2.40;2.20;;;7.30;99.90;;;;;;5058721;28;20239;-83
2023/12/14 10:02:28;;;;;;;2.37;2.20;;;7.30;99.90;;;;;;5063781;28;20309;-83
2023/12/14 10:04:53;;;;;;;1.63;1.53;;;7.60;99.90;;;;;;5040564;28;20464;-84
2023/12/14 10:07:21;;;;;;;1.87;1.70;;;7.70;99.90;;;;;;5024919;28;20318;-86
2023/12/14 10:09:47;;;;;;;1.40;1.17;;;7.90;99.90;;;;;;5065188;28;20236;-85
2023/12/14 10:12:13;;;;;;;2.37;1.43;;;8.00;99.90;;;;;;5077273;28;20186;-86
2023/12/14 10:14:39;;;;;;;0.73;0.70;;;8.10;99.90;;;;;;5070632;28;20248;-83
2023/12/14 10:17:18;;;;;;;2.03;1.93;;;8.00;99.90;;;;;;5046299;28;20312;-84
2023/12/14 10:19:45;;;;;;;2.27;2.17;;;8.00;99.90;;;;;;5062849;28;20254;-84
2023/12/14 10:22:13;;;;;;;1.77;1.67;;;8.10;99.90;;;;;;5060874;28;20217;-83
2023/12/14 10:24:38;;;;;;;2.57;2.03;;;8.30;99.90;;;;;;5060704;28;20193;-82
2023/12/14 10:27:09;;;;;;;1.47;1.43;;;8.40;99.90;;;;;;5078546;28;20606;-85
2023/12/14 10:29:37;;;;;;;2.77;2.43;;;8.40;99.90;;;;;;5061643;28;20221;-84
2023/12/14 10:32:08;;;;;;;1.97;1.87;;;8.20;99.90;;;;;;5095859;28;20247;-83
2023/12/14 10:34:39;;;;;;;2.47;2.37;;;8.20;99.90;;;;;;5063494;28;20320;-85
2023/12/14 10:37:05;;;;;;;1.57;1.33;;;8.30;99.90;;;;;;5062446;28;20221;-85
2023/12/14 10:39:36;;;;;;;4.63;2.70;;;8.30;99.90;;;;;;5046615;28;20193;-84
2023/12/14 10:42:04;;;;;;;3.17;2.80;;;8.40;99.90;;;;;;5078836;28;20190;-85
2023/12/14 10:44:34;;;;;;;3.43;1.50;;;8.40;99.90;;;;;;5060769;28;20217;-84
2023/12/14 10:47:02;;;;;;;2.10;1.90;;;8.30;99.90;;;;;;5061656;28;20360;-85
2023/12/14 10:49:29;;;;;;;1.93;1.67;;;8.40;99.90;;;;;;5071039;28;20240;-84
2023/12/14 10:51:57;;;;;;;1.50;1.40;;;8.30;99.90;;;;;;5096556;28;20316;-84
2023/12/14 10:54:28;;;;;;;3.47;3.07;;;8.20;99.90;;;;;;5062530;28;20181;-82
2023/12/14 10:56:57;;;;;;;2.77;2.60;;;8.10;99.90;;;;;;5061607;28;20559;-84
2023/12/14 10:59:26;;;;;;;1.00;1.00;;;8.00;99.90;;;;;;5053576;28;20552;-84
2023/12/14 11:01:55;;;;;;;2.23;2.13;;;8.00;99.90;;;;;;5045344;28;20882;-82
2023/12/14 11:04:27;;;;;;;1.03;1.00;;;8.00;99.90;;;;;;5065611;28;20209;-83
2023/12/14 11:06:54;;;;;;;3.00;2.80;;;8.10;99.90;;;;;;5066868;28;20843;-85
2023/12/14 11:09:22;;;;;;;1.77;1.67;;;8.10;99.90;;;;;;5082876;28;20536;-84
2023/12/14 11:11:59;;;;;;;2.00;1.90;;;8.10;99.90;;;;;;5065984;28;20209;-85
2023/12/14 11:14:26;;;;;;;1.10;0.93;;;8.10;99.90;;;;;;5066303;28;20237;-84
2023/12/14 11:17:14;;;;;;;2.83;1.67;;;8.00;99.90;;;;;;5067184;28;20227;-85
2023/12/14 11:19:39;;;;;;;1.57;1.47;;;8.00;99.90;;;;;;5066053;28;20258;-84
2023/12/14 11:22:05;;;;;;;5.50;3.27;;;8.00;99.90;;;;;;5032748;28;20545;-84
2023/12/14 11:24:31;;;;;;;3.27;2.33;;;8.20;99.90;;;;;;5066924;28;20558;-84
2023/12/14 11:26:57;;;;;;;6.33;2.27;;;8.10;99.90;;;;;;5067529;28;20173;-84
2023/12/14 11:29:23;;;;;;;3.07;2.27;;;8.10;99.90;;;;;;5099783;27;20217;-83
2023/12/14 11:31:49;;;;;;;0.30;0.30;;;8.00;99.90;;;;;;5099013;27;20241;-83
2023/12/14 11:34:16;;;;;;;2.30;1.40;;;8.10;99.90;;;;;;5065971;28;20215;-84
2023/12/14 11:36:43;;;;;;;1.67;1.57;;;8.10;99.90;;;;;;5045766;28;20193;-85
2023/12/14 11:39:12;;;;;;;1.43;1.00;;;8.10;99.90;;;;;;5067278;28;20210;-84
2023/12/14 11:41:38;;;;;;;1.23;0.97;;;8.10;99.90;;;;;;5049824;28;20707;-84
2023/12/14 11:44:04;;;;;;;4.13;2.13;;;8.10;99.90;;;;;;5041975;28;20306;-84
2023/12/14 11:46:31;;;;;;;2.17;0.93;;;8.10;99.90;;;;;;5049345;28;20284;-85
2023/12/14 11:48:58;;;;;;;2.27;2.10;;;7.90;99.90;;;;;;5067852;28;21147;-85
2023/12/14 11:51:29;;;;;;;2.53;2.03;;;8.00;99.90;;;;;;5074922;28;20196;-82
2023/12/14 11:53:55;;;;;;;2.13;2.00;;;8.00;99.90;;;;;;5067244;28;20228;-83
2023/12/14 11:56:22;;;;;;;1.83;1.73;;;8.00;99.90;;;;;;5065245;28;20221;-87
2023/12/14 11:58:49;;;;;;;1.00;1.00;;;7.80;99.90;;;;;;5046263;28;20584;-83
2023/12/14 12:01:24;;;;;;;2.00;1.90;;;7.70;99.90;;;;;;5064884;28;20209;-84
2023/12/14 12:03:50;;;;;;;1.40;1.40;;;7.80;99.90;;;;;;5066922;28;20218;-86
2023/12/14 12:06:30;;;;;;;8.80;2.73;;;7.90;99.90;;;;;;5049991;28;20185;-85
2023/12/14 12:08:59;;;;;;;3.10;1.93;;;7.90;99.90;;;;;;5058933;28;20223;-87
2023/12/14 12:11:27;;;;;;;3.03;1.43;;;7.80;99.90;;;;;;5065453;28;20766;-86
2023/12/14 12:13:54;;;;;;;1.80;1.70;;;7.90;99.90;;;;;;5066619;28;20224;-90
2023/12/14 12:16:21;;;;;;;2.63;2.43;;;7.90;99.90;;;;;;5066415;28;20270;-86
2023/12/14 12:18:46;;;;;;;1.80;1.20;;;7.90;99.90;;;;;;5065739;28;20262;-86
2023/12/14 12:21:13;;;;;;;5.77;1.97;;;7.90;99.90;;;;;;5067959;28;20178;-87
2023/12/14 12:23:40;;;;;;;1.03;1.03;;;7.80;99.90;;;;;;5046686;28;20768;-87
2023/12/14 12:26:06;;;;;;;3.27;2.57;;;7.80;99.90;;;;;;5061681;28;20220;-87
2023/12/14 12:28:31;;;;;;;0.83;0.83;;;7.60;99.90;;;;;;5065614;28;20221;-86
2023/12/14 12:30:59;;;;;;;3.17;2.17;;;7.60;99.90;;;;;;5046313;28;20743;-86
2023/12/14 12:33:25;;;;;;;1.00;1.00;;;7.70;99.90;;;;;;5053847;28;20222;-86
2023/12/14 12:35:52;;;;;;;1.90;1.20;;;7.70;99.90;;;;;;5083881;28;20240;-85
2023/12/14 12:38:18;;;;;;;2.43;1.73;;;7.70;99.90;;;;;;5074503;28;20232;-86
2023/12/14 12:40:44;;;;;;;2.67;1.70;;;7.80;99.90;;;;;;5045810;28;20214;-89
2023/12/14 12:43:12;;;;;;;1.80;1.70;;;7.90;99.90;;;;;;5084639;28;20225;-83
2023/12/14 12:45:37;;;;;;;1.10;1.10;;;7.90;99.90;;;;;;5066158;28;20418;-83
2023/12/14 12:48:05;;;;;;;2.27;1.63;;;7.90;99.90;;;;;;5065546;28;20229;-85
2023/12/14 12:50:31;;;;;;;2.40;1.63;;;8.00;99.90;;;;;;5066055;28;20213;-83
2023/12/14 12:52:57;;;;;;;5.17;1.23;;;8.00;99.90;;;;;;5049024;28;21576;-85
2023/12/14 12:55:23;;;;;;;2.20;2.00;;;7.90;99.90;;;;;;5065180;28;20218;-85